Time;durP1;ratioP1;P1;durP2;ratioP2;P2;SDS_P1;SDS_P2;PMS_P1;PMS_P2;Temp;Humidity;BMP_temperature;BMP_pressure;BME280_temperature;BME280_humidity;BME280_pressure;Samples;Min_cycle;Max_cycle;Signal;HPM_P1;HPM_P2
2023/10/26 00:01:14;;;;;;;16.27;11.45;;;10.50;99.90;;;;;;5093329;28;20024;-46
2023/10/26 00:03:40;;;;;;;17.77;12.50;;;10.60;99.90;;;;;;5093611;28;20471;-48
2023/10/26 00:06:06;;;;;;;17.13;12.63;;;10.50;99.90;;;;;;5093590;28;20036;-50
2023/10/26 00:08:31;;;;;;;17.85;12.68;;;10.50;99.90;;;;;;5075607;28;20047;-50
2023/10/26 00:11:01;;;;;;;18.55;12.85;;;10.40;99.90;;;;;;5093725;28;20042;-47
2023/10/26 00:13:27;;;;;;;17.10;12.50;;;10.40;99.90;;;;;;5106489;28;20060;-49
2023/10/26 00:15:53;;;;;;;18.90;12.93;;;10.50;99.90;;;;;;5086484;28;20035;-51
2023/10/26 00:18:18;;;;;;;21.15;11.88;;;10.40;99.90;;;;;;5093309;28;20123;-48
2023/10/26 00:20:45;;;;;;;20.40;12.60;;;10.40;99.90;;;;;;5078845;28;20105;-47
2023/10/26 00:23:11;;;;;;;16.73;11.43;;;10.50;99.90;;;;;;5092826;28;20052;-49
2023/10/26 00:25:37;;;;;;;21.23;12.40;;;10.50;99.90;;;;;;5093091;28;20063;-47
2023/10/26 00:28:03;;;;;;;15.60;11.27;;;10.50;99.90;;;;;;5092275;28;20521;-48
2023/10/26 00:30:28;;;;;;;14.88;12.20;;;10.50;99.90;;;;;;5092882;28;20039;-46
2023/10/26 00:32:54;;;;;;;14.50;11.85;;;10.50;99.90;;;;;;5092030;28;20177;-48
2023/10/26 00:35:20;;;;;;;19.92;13.52;;;10.40;99.90;;;;;;5101815;28;20505;-48
2023/10/26 00:37:45;;;;;;;20.08;13.43;;;10.40;99.90;;;;;;5113251;28;20039;-49
2023/10/26 00:40:12;;;;;;;15.90;13.85;;;10.50;99.90;;;;;;5101176;28;20115;-48
2023/10/26 00:42:38;;;;;;;18.73;13.77;;;10.40;99.90;;;;;;5099009;28;20585;-50
2023/10/26 00:45:05;;;;;;;22.20;15.88;;;10.40;99.90;;;;;;5091844;28;20039;-46
2023/10/26 00:47:31;;;;;;;22.40;17.08;;;10.50;99.90;;;;;;5107599;28;20047;-47
2023/10/26 00:49:59;;;;;;;27.45;17.48;;;10.40;99.90;;;;;;5106885;28;20028;-50
2023/10/26 00:52:25;;;;;;;30.92;18.50;;;10.50;99.90;;;;;;5100149;28;20069;-50
2023/10/26 00:54:53;;;;;;;28.40;20.27;;;10.50;99.90;;;;;;5113280;28;20047;-47
2023/10/26 00:57:22;;;;;;;26.90;18.20;;;10.50;99.90;;;;;;5094643;28;20039;-47
2023/10/26 00:59:50;;;;;;;29.42;20.05;;;10.50;99.90;;;;;;5094583;28;20097;-48
2023/10/26 01:02:16;;;;;;;27.55;18.83;;;10.50;99.90;;;;;;5112608;28;20485;-46
2023/10/26 01:04:42;;;;;;;32.90;21.95;;;10.50;99.90;;;;;;5105966;28;20032;-46
2023/10/26 01:07:08;;;;;;;29.48;22.17;;;10.50;99.90;;;;;;5107177;28;20367;-47
2023/10/26 01:09:34;;;;;;;29.52;22.75;;;10.50;99.90;;;;;;5100555;28;20036;-47
2023/10/26 01:12:01;;;;;;;30.98;22.33;;;10.60;99.90;;;;;;5112604;28;20044;-46
2023/10/26 01:14:27;;;;;;;35.72;25.58;;;10.50;99.90;;;;;;5095508;28;20118;-47
2023/10/26 01:16:55;;;;;;;37.67;25.63;;;10.40;99.90;;;;;;5112477;28;20040;-47
2023/10/26 01:19:20;;;;;;;30.33;23.30;;;10.40;99.90;;;;;;5108896;28;20043;-50
2023/10/26 01:21:53;;;;;;;41.15;25.83;;;10.50;99.90;;;;;;5091919;28;20032;-47
2023/10/26 01:24:19;;;;;;;31.42;26.17;;;10.50;99.90;;;;;;5092171;28;20030;-47
2023/10/26 01:26:45;;;;;;;40.65;27.48;;;10.50;99.90;;;;;;5091883;28;20040;-46
2023/10/26 01:29:11;;;;;;;36.33;27.30;;;10.50;99.90;;;;;;5091364;28;20127;-47
2023/10/26 01:31:37;;;;;;;43.10;28.50;;;10.60;99.90;;;;;;5091729;28;20132;-47
2023/10/26 01:34:03;;;;;;;37.35;29.05;;;10.50;99.90;;;;;;5091907;28;20034;-45
2023/10/26 01:36:29;;;;;;;44.20;29.80;;;10.60;99.90;;;;;;5091904;28;20036;-46
2023/10/26 01:38:55;;;;;;;40.75;29.67;;;10.50;99.90;;;;;;5091867;28;20036;-47
2023/10/26 01:41:21;;;;;;;40.42;28.33;;;10.50;99.90;;;;;;5091910;28;20048;-47
2023/10/26 01:43:48;;;;;;;42.35;31.48;;;10.50;99.90;;;;;;5100773;28;20119;-49
2023/10/26 01:46:13;;;;;;;40.92;29.73;;;10.60;99.90;;;;;;5111893;28;20080;-46
2023/10/26 01:48:39;;;;;;;44.15;30.67;;;10.60;99.90;;;;;;5112302;28;20039;-46
2023/10/26 01:51:05;;;;;;;50.90;32.67;;;10.60;99.90;;;;;;5093861;28;20077;-47
2023/10/26 01:53:31;;;;;;;42.00;31.85;;;10.50;99.90;;;;;;5111978;28;20078;-49
2023/10/26 01:55:56;;;;;;;44.40;32.60;;;10.60;99.90;;;;;;5103367;28;20043;-48
2023/10/26 01:58:22;;;;;;;40.78;30.90;;;10.60;99.90;;;;;;5108618;28;20039;-48
2023/10/26 02:00:48;;;;;;;45.78;32.22;;;10.70;99.90;;;;;;5094877;28;20119;-47
2023/10/26 02:03:15;;;;;;;46.75;32.85;;;10.60;99.90;;;;;;5111935;28;20044;-46
2023/10/26 02:05:41;;;;;;;45.45;32.13;;;10.60;99.90;;;;;;5112193;28;20042;-50
2023/10/26 02:08:07;;;;;;;39.80;30.33;;;10.70;99.90;;;;;;5111888;28;20036;-46
2023/10/26 02:10:33;;;;;;;47.83;33.08;;;10.70;99.90;;;;;;5111748;28;20101;-45
2023/10/26 02:12:59;;;;;;;41.25;31.55;;;10.70;99.90;;;;;;5101970;28;20064;-45
2023/10/26 02:15:25;;;;;;;41.55;32.60;;;10.60;99.90;;;;;;5108602;28;20145;-45
2023/10/26 02:17:50;;;;;;;39.60;30.60;;;10.60;99.90;;;;;;5095661;28;20059;-46
2023/10/26 02:20:17;;;;;;;42.78;32.10;;;10.60;99.90;;;;;;5073251;28;20039;-46
2023/10/26 02:22:42;;;;;;;45.28;31.38;;;10.60;99.90;;;;;;5091339;28;20032;-44
2023/10/26 02:25:08;;;;;;;48.63;32.15;;;10.70;99.90;;;;;;5091534;28;20085;-46
2023/10/26 02:27:34;;;;;;;45.22;31.75;;;10.70;99.90;;;;;;5091508;28;20059;-44
2023/10/26 02:30:00;;;;;;;45.03;30.67;;;10.70;99.90;;;;;;5082417;28;20078;-45
2023/10/26 02:32:26;;;;;;;39.65;29.50;;;10.70;99.90;;;;;;5090049;28;20040;-45
2023/10/26 02:34:52;;;;;;;44.78;32.03;;;10.60;99.90;;;;;;5083181;28;20036;-44
2023/10/26 02:37:20;;;;;;;38.03;30.73;;;10.60;99.90;;;;;;5091432;28;20040;-46
2023/10/26 02:39:46;;;;;;;46.08;31.95;;;10.60;99.90;;;;;;5091544;28;20036;-44
2023/10/26 02:42:12;;;;;;;39.85;31.45;;;10.70;99.90;;;;;;5073241;28;20047;-45
2023/10/26 02:44:37;;;;;;;43.15;32.75;;;10.70;99.90;;;;;;5107041;28;20042;-48
2023/10/26 02:47:03;;;;;;;47.40;33.53;;;10.70;99.90;;;;;;5064503;28;20571;-45
2023/10/26 02:49:33;;;;;;;38.17;30.05;;;10.50;99.90;;;;;;5105399;28;20043;-45
2023/10/26 02:51:59;;;;;;;46.60;30.88;;;10.60;99.90;;;;;;5111542;28;20096;-46
2023/10/26 02:54:28;;;;;;;38.78;28.50;;;10.50;99.90;;;;;;5112043;28;20039;-46
2023/10/26 02:56:54;;;;;;;41.65;30.75;;;10.60;99.90;;;;;;5111341;28;20105;-45
2023/10/26 02:59:20;;;;;;;39.95;30.38;;;10.50;99.90;;;;;;5093383;28;20446;-46
2023/10/26 03:01:46;;;;;;;47.15;32.40;;;10.50;99.90;;;;;;5111271;28;20498;-47
2023/10/26 03:04:12;;;;;;;44.45;30.73;;;10.50;99.90;;;;;;5109420;28;20071;-45
2023/10/26 03:06:39;;;;;;;40.40;29.70;;;10.50;99.90;;;;;;5115063;28;20078;-45
2023/10/26 03:09:05;;;;;;;37.72;29.38;;;10.50;99.90;;;;;;5115255;28;20423;-45
2023/10/26 03:11:32;;;;;;;37.85;28.50;;;10.40;99.90;;;;;;5114788;28;20516;-46
2023/10/26 03:13:57;;;;;;;48.10;30.90;;;10.40;99.90;;;;;;5114686;28;20035;-46
2023/10/26 03:16:23;;;;;;;41.65;29.40;;;10.40;99.90;;;;;;5111620;28;20047;-47
2023/10/26 03:18:49;;;;;;;43.50;30.45;;;10.40;99.90;;;;;;5094580;28;20442;-45
2023/10/26 03:21:16;;;;;;;35.28;28.65;;;10.50;99.90;;;;;;5093835;28;20028;-49
2023/10/26 03:23:41;;;;;;;36.65;27.85;;;10.50;99.90;;;;;;5093946;28;20040;-48
2023/10/26 03:26:11;;;;;;;41.50;29.48;;;10.40;99.90;;;;;;5094174;28;20028;-50
2023/10/26 03:28:37;;;;;;;38.10;29.65;;;10.40;99.90;;;;;;5094468;28;20047;-48
2023/10/26 03:31:02;;;;;;;40.92;29.60;;;10.40;99.90;;;;;;5092448;28;20036;-47
2023/10/26 03:33:28;;;;;;;34.75;28.17;;;10.40;99.90;;;;;;5086655;28;20040;-47
2023/10/26 03:35:54;;;;;;;41.17;29.77;;;10.40;99.90;;;;;;5093149;28;20089;-47
2023/10/26 03:38:19;;;;;;;37.17;28.80;;;10.40;99.90;;;;;;5093827;28;20044;-46
2023/10/26 03:40:48;;;;;;;40.42;28.30;;;10.30;99.90;;;;;;5093977;28;20507;-47
2023/10/26 03:43:14;;;;;;;;;;;10.30;99.90;;;;;;5098576;28;20039;-45
2023/10/26 03:45:40;;;;;;;39.53;28.17;;;10.30;99.90;;;;;;5114429;28;19916;-45
2023/10/26 03:48:05;;;;;;;37.60;28.45;;;10.30;99.90;;;;;;5114016;28;20036;-48
2023/10/26 03:50:31;;;;;;;33.28;26.08;;;10.30;99.90;;;;;;5114371;28;20039;-48
2023/10/26 03:52:57;;;;;;;34.63;26.90;;;10.30;99.90;;;;;;5114329;28;20035;-48
2023/10/26 03:55:22;;;;;;;38.53;28.60;;;10.30;99.90;;;;;;5091968;28;20040;-48
2023/10/26 03:57:48;;;;;;;43.95;30.80;;;10.40;99.90;;;;;;5113964;28;20043;-46
2023/10/26 04:00:15;;;;;;;40.33;29.40;;;10.40;99.90;;;;;;5113825;28;20127;-48
2023/10/26 04:02:41;;;;;;;36.92;27.77;;;10.30;99.90;;;;;;5114142;28;20089;-51
2023/10/26 04:05:07;;;;;;;35.85;27.50;;;10.30;99.90;;;;;;5113782;28;20040;-48
2023/10/26 04:07:33;;;;;;;34.13;28.20;;;10.30;99.90;;;;;;5114368;28;20028;-53
2023/10/26 04:09:59;;;;;;;36.55;27.00;;;10.20;99.90;;;;;;5114086;28;20436;-49
2023/10/26 04:12:25;;;;;;;39.13;30.02;;;10.30;99.90;;;;;;5109888;28;20047;-49
2023/10/26 04:14:51;;;;;;;31.67;27.38;;;10.30;99.90;;;;;;5113778;28;20035;-47
2023/10/26 04:17:17;;;;;;;36.78;28.15;;;10.20;99.90;;;;;;5112586;28;20392;-48
2023/10/26 04:19:42;;;;;;;38.78;28.40;;;10.20;99.90;;;;;;5113511;28;20039;-45
2023/10/26 04:22:08;;;;;;;44.13;29.17;;;10.30;99.90;;;;;;5113679;28;20040;-49
2023/10/26 04:24:34;;;;;;;36.85;28.13;;;10.20;99.90;;;;;;5113393;28;20441;-48
2023/10/26 04:27:00;;;;;;;38.78;28.50;;;10.30;99.90;;;;;;5095605;28;20042;-47
2023/10/26 04:29:25;;;;;;;45.55;30.70;;;10.30;99.90;;;;;;5113333;28;20122;-47
2023/10/26 04:31:51;;;;;;;42.72;31.38;;;10.20;99.90;;;;;;5111938;28;20458;-46
2023/10/26 04:34:17;;;;;;;36.25;29.48;;;10.30;99.90;;;;;;5113267;28;20488;-48
2023/10/26 04:36:43;;;;;;;38.50;28.02;;;10.30;99.90;;;;;;5113355;28;20168;-47
2023/10/26 04:39:09;;;;;;;37.50;28.95;;;10.20;99.90;;;;;;5113412;28;20428;-48
2023/10/26 04:41:36;;;;;;;40.72;28.00;;;10.30;99.90;;;;;;5113006;28;20053;-48
2023/10/26 04:44:04;;;;;;;39.00;27.52;;;10.20;99.90;;;;;;5113264;28;20459;-48
2023/10/26 04:46:30;;;;;;;37.88;26.85;;;10.20;99.90;;;;;;5112937;28;20038;-48
2023/10/26 04:48:56;;;;;;;40.22;28.83;;;10.20;99.90;;;;;;5113273;28;20039;-46
2023/10/26 04:51:22;;;;;;;34.55;27.70;;;10.20;99.90;;;;;;5112992;28;20469;-48
2023/10/26 04:53:49;;;;;;;38.08;28.10;;;10.10;99.90;;;;;;5112930;28;20039;-49
2023/10/26 04:56:15;;;;;;;34.28;27.58;;;10.20;99.90;;;;;;5113212;28;20040;-49
2023/10/26 04:58:43;;;;;;;35.60;25.52;;;10.20;99.90;;;;;;5112649;28;20496;-51
2023/10/26 05:01:09;;;;;;;37.08;26.90;;;10.30;99.90;;;;;;5112994;28;20032;-47
2023/10/26 05:03:34;;;;;;;33.25;26.38;;;10.20;99.90;;;;;;5112355;28;20079;-50
2023/10/26 05:06:00;;;;;;;38.50;27.63;;;10.20;99.90;;;;;;5113320;28;20075;-49
2023/10/26 05:08:26;;;;;;;34.10;26.70;;;10.10;99.90;;;;;;5112776;28;20040;-48
2023/10/26 05:10:51;;;;;;;30.52;26.40;;;10.10;99.90;;;;;;5112929;28;20036;-49
2023/10/26 05:13:17;;;;;;;35.17;25.95;;;10.00;99.90;;;;;;5095542;28;20131;-51
2023/10/26 05:15:44;;;;;;;34.00;24.80;;;10.10;99.90;;;;;;5092011;28;20047;-47
2023/10/26 05:18:10;;;;;;;28.90;23.17;;;10.00;99.90;;;;;;5092085;28;20036;-49
2023/10/26 05:20:36;;;;;;;31.30;23.40;;;9.90;99.90;;;;;;5092017;28;20501;-48
2023/10/26 05:23:02;;;;;;;30.58;22.85;;;9.80;99.90;;;;;;5091522;28;20039;-49
2023/10/26 05:25:28;;;;;;;33.47;25.23;;;9.80;99.90;;;;;;5092424;28;20390;-47
2023/10/26 05:27:54;;;;;;;32.40;26.02;;;9.80;99.90;;;;;;5091782;28;20047;-49
2023/10/26 05:30:19;;;;;;;30.63;23.77;;;9.70;99.90;;;;;;5073939;28;20493;-48
2023/10/26 05:32:45;;;;;;;30.92;23.67;;;9.70;99.90;;;;;;5091862;28;20044;-49
2023/10/26 05:35:13;;;;;;;28.65;23.42;;;9.60;99.90;;;;;;5091638;28;20054;-50
2023/10/26 05:37:39;;;;;;;33.10;24.77;;;9.70;99.90;;;;;;5091939;28;20082;-48
2023/10/26 05:40:05;;;;;;;32.40;23.98;;;9.70;99.90;;;;;;5091715;28;20489;-50
2023/10/26 05:42:31;;;;;;;32.05;25.60;;;9.70;99.90;;;;;;5091712;28;20483;-47
2023/10/26 05:44:57;;;;;;;32.28;25.17;;;9.80;99.90;;;;;;5091851;28;20032;-47
2023/10/26 05:47:23;;;;;;;31.52;24.23;;;9.70;99.90;;;;;;5091950;28;20032;-46
2023/10/26 05:49:49;;;;;;;36.28;24.88;;;9.80;99.90;;;;;;5091577;28;20047;-48
2023/10/26 05:52:15;;;;;;;37.38;26.85;;;9.80;99.90;;;;;;5092029;28;20040;-48
2023/10/26 05:54:41;;;;;;;30.17;25.48;;;9.80;99.90;;;;;;5091263;28;20177;-47
2023/10/26 05:57:07;;;;;;;32.50;24.85;;;9.80;99.90;;;;;;5091948;28;20118;-48
2023/10/26 05:59:33;;;;;;;30.23;24.58;;;9.80;99.90;;;;;;5091814;28;20115;-47
2023/10/26 06:01:58;;;;;;;32.53;24.95;;;9.80;99.90;;;;;;5091478;28;20032;-50
2023/10/26 06:04:24;;;;;;;34.20;24.13;;;9.80;99.90;;;;;;5073435;28;20479;-47
2023/10/26 06:06:50;;;;;;;33.30;25.75;;;9.80;99.90;;;;;;5091602;28;20051;-50
2023/10/26 06:09:16;;;;;;;40.97;27.08;;;9.80;99.90;;;;;;5091578;28;20044;-48
2023/10/26 06:11:42;;;;;;;31.00;23.05;;;9.70;99.90;;;;;;5094108;28;20040;-49
2023/10/26 06:14:08;;;;;;;32.85;25.45;;;9.80;99.90;;;;;;5111916;28;20515;-47
2023/10/26 06:16:34;;;;;;;32.40;23.70;;;9.80;99.90;;;;;;5111663;28;20047;-48
2023/10/26 06:19:00;;;;;;;34.80;25.15;;;9.70;99.90;;;;;;5111691;28;20058;-46
2023/10/26 06:21:27;;;;;;;37.17;25.15;;;9.60;99.90;;;;;;5111857;28;20474;-47
2023/10/26 06:23:53;;;;;;;32.78;25.10;;;9.60;99.90;;;;;;5111742;28;20066;-47
2023/10/26 06:26:19;;;;;;;35.33;24.17;;;9.70;99.90;;;;;;5111789;28;20114;-48
2023/10/26 06:28:47;;;;;;;34.20;26.73;;;9.50;99.90;;;;;;5093191;28;20239;-45
2023/10/26 06:31:16;;;;;;;36.15;27.17;;;9.60;99.90;;;;;;5111595;28;20035;-46
2023/10/26 06:33:43;;;;;;;31.88;24.25;;;9.50;99.90;;;;;;5111784;28;20362;-45
2023/10/26 06:36:10;;;;;;;36.10;27.25;;;9.50;99.90;;;;;;5093567;28;20035;-46
2023/10/26 06:38:37;;;;;;;36.17;26.58;;;9.60;99.90;;;;;;5110027;28;20036;-46
2023/10/26 06:41:04;;;;;;;42.40;28.08;;;9.60;99.90;;;;;;5114782;28;20035;-47
2023/10/26 06:43:30;;;;;;;45.97;29.42;;;9.60;99.90;;;;;;5115514;28;20035;-46
2023/10/26 06:45:55;;;;;;;40.33;27.15;;;9.60;99.90;;;;;;5115274;28;20031;-46
2023/10/26 06:48:21;;;;;;;44.85;28.98;;;9.70;99.90;;;;;;5115069;28;20036;-46
2023/10/26 06:50:47;;;;;;;41.85;28.35;;;9.60;99.90;;;;;;5115643;28;20393;-47
2023/10/26 06:53:13;;;;;;;38.97;28.67;;;9.70;99.90;;;;;;5115112;28;20035;-46
2023/10/26 06:55:39;;;;;;;49.50;30.58;;;9.70;99.90;;;;;;5115581;28;20047;-47
2023/10/26 06:58:04;;;;;;;38.00;28.17;;;9.70;99.90;;;;;;5115277;28;20035;-45
2023/10/26 07:00:31;;;;;;;45.60;30.95;;;9.80;99.90;;;;;;5115303;28;20055;-46
2023/10/26 07:02:56;;;;;;;50.40;31.85;;;9.80;99.90;;;;;;5114761;28;20042;-45
2023/10/26 07:05:22;;;;;;;51.67;33.00;;;9.90;99.90;;;;;;5115232;28;20035;-48
2023/10/26 07:07:48;;;;;;;61.90;33.20;;;9.80;99.90;;;;;;5115299;28;20031;-46
2023/10/26 07:10:19;;;;;;;50.25;31.25;;;9.90;99.90;;;;;;5096935;28;20579;-47
2023/10/26 07:12:46;;;;;;;58.75;33.55;;;9.90;99.90;;;;;;5102732;28;20498;-48
2023/10/26 07:15:12;;;;;;;60.38;32.55;;;10.00;99.90;;;;;;5076615;28;20047;-46
2023/10/26 07:17:38;;;;;;;60.50;33.45;;;9.90;99.90;;;;;;5094663;28;20043;-48
2023/10/26 07:20:05;;;;;;;51.65;32.40;;;9.90;99.90;;;;;;5094671;28;20123;-48
2023/10/26 07:22:39;;;;;;;47.78;33.85;;;10.00;99.90;;;;;;5094099;28;20081;-47
2023/10/26 07:25:05;;;;;;;51.15;32.88;;;10.10;99.90;;;;;;5075947;28;20040;-46
2023/10/26 07:27:31;;;;;;;50.50;33.92;;;10.00;99.90;;;;;;5094298;28;20112;-44
2023/10/26 07:29:58;;;;;;;50.13;31.17;;;10.10;99.90;;;;;;5094146;28;20146;-45
2023/10/26 07:32:24;;;;;;;54.40;33.60;;;10.20;99.90;;;;;;5094501;28;20040;-46
2023/10/26 07:34:51;;;;;;;58.15;32.42;;;10.20;99.90;;;;;;5093927;28;20040;-47
2023/10/26 07:37:17;;;;;;;57.78;31.98;;;10.20;99.90;;;;;;5093880;28;20040;-47
2023/10/26 07:39:43;;;;;;;50.13;30.50;;;10.20;99.90;;;;;;5094253;28;20123;-46
2023/10/26 07:42:08;;;;;;;47.33;31.63;;;10.20;99.90;;;;;;5094084;28;20142;-47
2023/10/26 07:44:35;;;;;;;52.42;31.52;;;10.30;99.90;;;;;;5091646;28;20044;-50
2023/10/26 07:47:01;;;;;;;48.30;29.90;;;10.30;99.90;;;;;;5094415;28;20028;-47
2023/10/26 07:49:27;;;;;;;43.88;29.30;;;10.20;99.90;;;;;;5093970;28;20102;-47
2023/10/26 07:51:52;;;;;;;48.78;29.75;;;10.20;99.90;;;;;;5093264;28;20532;-47
2023/10/26 07:54:18;;;;;;;42.92;27.92;;;10.20;99.90;;;;;;5075627;28;20036;-47
2023/10/26 07:56:44;;;;;;;42.90;28.10;;;10.10;99.90;;;;;;5093525;28;20062;-49
2023/10/26 07:59:09;;;;;;;40.65;26.52;;;10.20;99.90;;;;;;5092826;28;20462;-49
2023/10/26 08:01:36;;;;;;;38.13;26.58;;;10.20;99.90;;;;;;5093474;28;20071;-47
2023/10/26 08:04:02;;;;;;;43.00;26.70;;;10.20;99.90;;;;;;5090004;28;20032;-45
2023/10/26 08:06:28;;;;;;;48.45;28.48;;;10.10;99.90;;;;;;5083827;28;20032;-47
2023/10/26 08:08:54;;;;;;;41.83;28.08;;;10.10;99.90;;;;;;5091124;28;20093;-47
2023/10/26 08:11:19;;;;;;;44.42;27.38;;;10.10;99.90;;;;;;5088680;28;20036;-46
2023/10/26 08:13:45;;;;;;;53.65;29.30;;;10.10;99.90;;;;;;5113648;28;20117;-47
2023/10/26 08:16:11;;;;;;;38.95;25.92;;;10.10;99.90;;;;;;5113451;28;20027;-49
2023/10/26 08:18:39;;;;;;;47.35;29.15;;;10.10;99.90;;;;;;5113734;28;20036;-48
2023/10/26 08:21:05;;;;;;;43.08;27.42;;;10.00;99.90;;;;;;5113578;28;20412;-45
2023/10/26 08:23:32;;;;;;;42.25;27.45;;;10.10;99.90;;;;;;5113798;28;20036;-46
2023/10/26 08:26:08;;;;;;;38.75;26.80;;;10.10;99.90;;;;;;5113273;28;20119;-46
2023/10/26 08:28:36;;;;;;;42.55;28.48;;;10.10;99.90;;;;;;5106746;28;20399;-46
2023/10/26 08:31:02;;;;;;;48.92;28.95;;;10.10;99.90;;;;;;5113460;28;20040;-48
2023/10/26 08:33:31;;;;;;;37.97;25.40;;;10.10;99.90;;;;;;5113178;28;20409;-46
2023/10/26 08:35:57;;;;;;;41.55;26.63;;;10.10;99.90;;;;;;5113380;28;20355;-45
2023/10/26 08:38:23;;;;;;;37.40;25.58;;;10.20;99.90;;;;;;5113214;28;20054;-48
2023/10/26 08:40:55;;;;;;;37.10;24.92;;;10.20;99.90;;;;;;5113097;28;20477;-48
2023/10/26 08:43:22;;;;;;;40.28;26.17;;;10.20;99.90;;;;;;5112925;28;20047;-46
2023/10/26 08:45:48;;;;;;;42.33;25.17;;;10.30;99.90;;;;;;5113463;28;20039;-46
2023/10/26 08:48:20;;;;;;;37.90;24.98;;;10.30;99.90;;;;;;5113180;28;20107;-46
2023/10/26 08:50:47;;;;;;;35.53;24.55;;;10.20;99.90;;;;;;5113376;28;20031;-45
2023/10/26 08:53:14;;;;;;;36.85;25.15;;;10.20;99.90;;;;;;5112737;28;20468;-46
2023/10/26 08:55:41;;;;;;;36.88;25.30;;;10.20;99.90;;;;;;5095198;28;20122;-46
2023/10/26 08:58:08;;;;;;;39.50;25.25;;;10.40;99.90;;;;;;5112905;28;20051;-45
2023/10/26 09:00:36;;;;;;;33.25;24.08;;;10.40;99.90;;;;;;5112841;28;20039;-46
2023/10/26 09:03:02;;;;;;;36.57;24.30;;;10.40;99.90;;;;;;5112054;28;20077;-48
2023/10/26 09:05:27;;;;;;;36.67;25.30;;;10.30;99.90;;;;;;5112579;28;20027;-46
2023/10/26 09:07:53;;;;;;;34.90;23.83;;;10.30;99.90;;;;;;5094499;28;20119;-47
2023/10/26 09:10:32;;;;;;;30.00;22.15;;;10.40;99.90;;;;;;5112991;28;20081;-50
2023/10/26 09:13:03;;;;;;;30.65;22.67;;;10.50;99.90;;;;;;5098494;28;20449;-46
2023/10/26 09:15:29;;;;;;;30.38;21.95;;;10.50;99.90;;;;;;5092444;28;20048;-46
2023/10/26 09:18:00;;;;;;;30.67;23.05;;;10.50;99.90;;;;;;5092091;28;20123;-47
2023/10/26 09:20:26;;;;;;;35.10;23.33;;;10.50;99.90;;;;;;5092293;28;20052;-46
2023/10/26 09:22:52;;;;;;;34.30;23.70;;;10.50;99.90;;;;;;5092055;28;20040;-46
2023/10/26 09:25:18;;;;;;;38.03;24.00;;;10.60;99.90;;;;;;5092037;28;20036;-48
2023/10/26 09:27:48;;;;;;;33.35;23.42;;;10.50;99.90;;;;;;5092307;28;20068;-47
2023/10/26 09:30:27;;;;;;;29.70;22.98;;;10.60;99.90;;;;;;5091974;28;20040;-46
2023/10/26 09:32:53;;;;;;;32.38;22.35;;;10.60;99.90;;;;;;5092120;28;20039;-45
2023/10/26 09:35:30;;;;;;;37.40;25.27;;;10.60;99.90;;;;;;5091667;28;20470;-46
2023/10/26 09:37:57;;;;;;;32.60;23.25;;;10.60;99.90;;;;;;5088432;28;20379;-46
2023/10/26 09:40:23;;;;;;;35.17;23.70;;;10.70;99.90;;;;;;5091033;28;20486;-46
2023/10/26 09:42:50;;;;;;;34.00;23.75;;;10.60;99.90;;;;;;5091659;28;20067;-46
2023/10/26 09:45:19;;;;;;;37.53;24.90;;;10.70;99.90;;;;;;5073641;28;20402;-46
2023/10/26 09:47:46;;;;;;;37.97;24.75;;;10.70;99.90;;;;;;5089418;28;20040;-45
2023/10/26 09:50:12;;;;;;;32.88;22.98;;;10.70;99.90;;;;;;5090413;28;20036;-47
2023/10/26 09:52:39;;;;;;;32.97;22.80;;;10.60;99.90;;;;;;5092023;28;20055;-48
2023/10/26 09:55:07;;;;;;;33.22;23.33;;;10.60;99.90;;;;;;5073622;28;20478;-46
2023/10/26 09:57:50;;;;;;;29.45;21.75;;;10.60;99.90;;;;;;5091936;28;20147;-47
2023/10/26 10:00:17;;;;;;;31.88;23.02;;;10.70;99.90;;;;;;5089271;28;20132;-46
2023/10/26 10:02:43;;;;;;;33.05;23.55;;;10.70;99.90;;;;;;5091303;28;20044;-46
2023/10/26 10:05:37;;;;;;;35.85;22.83;;;10.70;99.90;;;;;;5091419;28;20036;-46
2023/10/26 10:08:04;;;;;;;30.75;22.20;;;10.70;99.90;;;;;;5091909;28;20068;-49
2023/10/26 10:10:29;;;;;;;31.63;22.10;;;10.70;99.90;;;;;;5089926;28;20800;-46
2023/10/26 10:12:55;;;;;;;34.00;23.60;;;10.80;99.90;;;;;;5104248;28;20056;-46
2023/10/26 10:15:38;;;;;;;33.85;23.58;;;10.80;99.90;;;;;;5116175;28;20039;-47
2023/10/26 10:18:06;;;;;;;28.35;23.15;;;10.80;99.90;;;;;;5116092;28;20485;-49
2023/10/26 10:20:36;;;;;;;32.38;22.92;;;10.80;99.90;;;;;;5113847;28;20420;-46
2023/10/26 10:23:03;;;;;;;32.33;23.60;;;10.90;99.90;;;;;;5105413;28;20428;-47
2023/10/26 10:25:51;;;;;;;33.20;24.42;;;10.80;99.90;;;;;;5111580;28;20448;-46
2023/10/26 10:28:18;;;;;;;33.13;23.45;;;10.80;99.90;;;;;;5115651;28;20489;-46
2023/10/26 10:30:59;;;;;;;30.10;23.30;;;10.80;99.90;;;;;;5115682;28;20032;-48
2023/10/26 10:33:27;;;;;;;30.23;22.95;;;10.80;99.90;;;;;;5115753;28;20043;-47
2023/10/26 10:36:01;;;;;;;34.40;25.10;;;10.90;99.90;;;;;;5097216;28;20039;-46
2023/10/26 10:38:30;;;;;;;33.83;24.25;;;10.90;99.90;;;;;;5097540;28;20036;-47
2023/10/26 10:40:59;;;;;;;31.83;25.17;;;10.90;99.90;;;;;;5115502;28;20035;-44
2023/10/26 10:43:34;;;;;;;36.08;25.58;;;10.90;99.90;;;;;;5115456;28;20085;-46
2023/10/26 10:46:35;;;;;;;36.20;25.88;;;11.00;99.90;;;;;;5115364;28;20071;-47
2023/10/26 10:49:05;;;;;;;37.33;27.20;;;10.90;99.90;;;;;;5022348;28;20053;-46
2023/10/26 10:51:35;;;;;;;37.90;26.75;;;11.10;99.90;;;;;;5100690;28;20223;-45
2023/10/26 10:54:03;;;;;;;35.03;25.20;;;11.00;99.90;;;;;;5115184;28;20148;-46
2023/10/26 10:56:36;;;;;;;37.90;26.45;;;11.10;99.90;;;;;;5115345;28;20055;-46
2023/10/26 10:59:17;;;;;;;40.33;27.52;;;11.10;99.90;;;;;;5115073;28;20136;-47
2023/10/26 11:01:43;;;;;;;36.70;27.58;;;11.20;99.90;;;;;;5114834;28;20093;-47
2023/10/26 11:04:13;;;;;;;35.72;27.45;;;11.10;99.90;;;;;;5096480;28;20079;-46
2023/10/26 11:06:46;;;;;;;43.13;28.35;;;11.10;99.90;;;;;;5115235;28;20110;-46
2023/10/26 11:09:21;;;;;;;39.92;29.52;;;11.20;99.90;;;;;;5114789;28;20035;-47
2023/10/26 11:11:47;;;;;;;37.58;28.42;;;11.20;99.90;;;;;;5110504;28;20056;-46
2023/10/26 11:14:13;;;;;;;38.42;27.60;;;11.20;99.90;;;;;;5094446;28;20058;-45
2023/10/26 11:16:41;;;;;;;36.75;28.40;;;11.20;99.90;;;;;;5076438;28;20380;-48
2023/10/26 11:19:07;;;;;;;45.63;31.02;;;11.20;99.90;;;;;;5094472;28;20471;-47
2023/10/26 11:21:33;;;;;;;42.25;29.35;;;11.20;99.90;;;;;;5076390;28;20043;-46
2023/10/26 11:23:59;;;;;;;44.33;31.20;;;11.20;99.90;;;;;;5094308;28;20036;-49
2023/10/26 11:26:25;;;;;;;45.58;31.58;;;11.20;99.90;;;;;;5075669;28;20044;-48
2023/10/26 11:28:51;;;;;;;42.08;30.50;;;11.30;99.90;;;;;;5094016;28;20036;-45
2023/10/26 11:31:34;;;;;;;40.65;30.08;;;11.30;99.90;;;;;;5094158;28;20067;-45
2023/10/26 11:34:05;;;;;;;39.67;29.85;;;11.30;99.90;;;;;;5094100;28;20043;-48
2023/10/26 11:36:31;;;;;;;43.42;29.98;;;11.30;99.90;;;;;;5075881;28;20044;-46
2023/10/26 11:38:57;;;;;;;37.28;28.80;;;11.40;99.90;;;;;;5094015;28;20119;-47
2023/10/26 11:41:29;;;;;;;40.83;28.52;;;11.40;99.90;;;;;;5093710;28;20048;-49
2023/10/26 11:43:56;;;;;;;40.13;29.45;;;11.40;99.90;;;;;;5093758;28;20040;-45
2023/10/26 11:46:34;;;;;;;36.72;28.63;;;11.40;99.90;;;;;;5093549;28;20043;-46
2023/10/26 11:49:01;;;;;;;42.10;29.38;;;11.40;99.90;;;;;;5093857;28;20043;-47
2023/10/26 11:51:28;;;;;;;33.45;26.98;;;11.50;99.90;;;;;;5093729;28;20036;-48
2023/10/26 11:53:55;;;;;;;37.83;27.90;;;11.50;99.90;;;;;;5094124;28;20039;-47
2023/10/26 11:56:20;;;;;;;35.20;26.90;;;11.60;99.90;;;;;;5093423;28;20087;-46
2023/10/26 11:58:46;;;;;;;39.40;26.73;;;11.60;99.90;;;;;;5093408;28;20063;-46
2023/10/26 12:01:12;;;;;;;39.53;28.48;;;11.70;99.90;;;;;;5093588;28;20398;-45
2023/10/26 12:03:43;;;;;;;36.22;27.88;;;11.70;99.90;;;;;;5093499;28;20032;-45
2023/10/26 12:06:11;;;;;;;42.00;30.67;;;11.80;99.90;;;;;;5093480;28;20047;-44
2023/10/26 12:08:37;;;;;;;39.30;27.63;;;11.70;99.90;;;;;;5093365;28;20043;-45
2023/10/26 12:11:04;;;;;;;35.70;26.83;;;11.70;99.90;;;;;;5093102;28;20063;-45
2023/10/26 12:13:32;;;;;;;36.33;28.02;;;11.70;99.90;;;;;;5109477;28;20126;-46
2023/10/26 12:15:58;;;;;;;37.67;28.40;;;11.70;99.90;;;;;;5113855;28;20084;-45
2023/10/26 12:18:23;;;;;;;37.10;28.00;;;11.70;99.90;;;;;;5113745;28;20371;-45
2023/10/26 12:20:49;;;;;;;41.15;30.88;;;11.60;99.90;;;;;;5113319;28;20489;-46
2023/10/26 12:23:15;;;;;;;37.13;28.33;;;11.60;99.90;;;;;;5113438;28;20047;-46
2023/10/26 12:25:40;;;;;;;37.90;28.55;;;11.60;99.90;;;;;;5113288;28;20055;-46
2023/10/26 12:28:06;;;;;;;40.53;29.70;;;11.50;99.90;;;;;;5113356;28;20032;-46